createdAt,value
2022-11-03T00:02:15.665Z,10.40
2022-11-03T00:04:43.689Z,10.70
2022-11-03T00:07:11.386Z,10.70
2022-11-03T00:09:39.110Z,10.80
2022-11-03T00:12:08.386Z,10.90
2022-11-03T00:14:35.927Z,11.00
2022-11-03T00:17:03.499Z,11.00
2022-11-03T00:19:31.114Z,10.90
2022-11-03T00:21:59.501Z,10.90
2022-11-03T00:24:30.906Z,11.10
2022-11-03T00:27:00.477Z,11.30
2022-11-03T00:29:32.198Z,11.30
2022-11-03T00:32:13.612Z,11.20
2022-11-03T00:34:46.995Z,11.50
2022-11-03T00:37:15.752Z,11.60
2022-11-03T00:39:43.521Z,11.50
2022-11-03T00:42:12.657Z,11.60
2022-11-03T00:44:42.064Z,11.60
2022-11-03T00:47:13.335Z,11.50
2022-11-03T00:49:42.842Z,11.50
2022-11-03T00:52:10.787Z,11.50
2022-11-03T00:54:38.414Z,11.60
2022-11-03T00:57:05.985Z,11.50
2022-11-03T00:59:33.542Z,11.60
2022-11-03T01:02:01.324Z,11.60
2022-11-03T01:04:47.635Z,11.50
2022-11-03T01:07:15.817Z,11.40
2022-11-03T01:09:43.660Z,11.50
2022-11-03T01:12:20.021Z,11.50
2022-11-03T01:14:53.824Z,11.60
2022-11-03T01:17:28.395Z,11.60
2022-11-03T01:19:57.084Z,11.70
2022-11-03T01:22:25.336Z,11.80
2022-11-03T01:24:53.058Z,11.70
2022-11-03T01:27:25.203Z,11.70
2022-11-03T01:29:52.792Z,11.60
2022-11-03T01:32:20.381Z,11.60
2022-11-03T01:34:48.024Z,11.60
2022-11-03T01:37:16.057Z,11.50
2022-11-03T01:39:49.726Z,11.60
2022-11-03T01:42:18.906Z,11.60
2022-11-03T01:44:49.588Z,11.60
2022-11-03T01:47:31.615Z,11.60
2022-11-03T01:50:19.877Z,11.60
2022-11-03T01:52:59.665Z,11.50
2022-11-03T01:55:40.058Z,11.50
2022-11-03T01:58:32.210Z,11.40
2022-11-03T02:01:02.737Z,11.50
2022-11-03T02:03:42.766Z,11.40
2022-11-03T02:06:11.904Z,11.30
2022-11-03T02:08:52.683Z,11.40
2022-11-03T02:11:38.915Z,11.30
2022-11-03T02:14:13.847Z,11.10
2022-11-03T02:16:54.037Z,11.10
2022-11-03T02:20:01.501Z,11.10
2022-11-03T02:23:11.924Z,11.10
2022-11-03T02:25:58.815Z,11.10
2022-11-03T02:28:33.518Z,11.10
2022-11-03T02:31:30.080Z,11.20
2022-11-03T02:34:26.407Z,11.20
2022-11-03T02:37:16.638Z,11.30
2022-11-03T02:40:03.368Z,11.30
2022-11-03T02:42:33.511Z,11.40
2022-11-03T02:45:13.251Z,11.30
2022-11-03T02:47:46.627Z,11.30
2022-11-03T02:50:14.247Z,11.20
2022-11-03T02:52:48.422Z,11.30
2022-11-03T02:55:49.973Z,11.30
2022-11-03T02:59:01.675Z,11.20
2022-11-03T03:02:06.863Z,11.20
2022-11-03T03:04:58.374Z,11.10
2022-11-03T03:07:36.262Z,11.10
2022-11-03T03:10:27.923Z,11.10
2022-11-03T03:13:01.354Z,11.00
2022-11-03T03:16:21.112Z,11.10
2022-11-03T03:19:30.215Z,11.10
2022-11-03T03:22:10.722Z,11.10
2022-11-03T03:24:56.319Z,11.20
2022-11-03T03:27:31.815Z,11.10
2022-11-03T03:30:10.486Z,11.20
2022-11-03T03:32:46.454Z,11.40
2022-11-03T03:35:30.976Z,11.30
2022-11-03T03:38:15.983Z,11.20
2022-11-03T03:40:52.658Z,11.00
2022-11-03T03:43:26.183Z,11.10
2022-11-03T03:46:06.459Z,11.00
2022-11-03T03:48:34.585Z,10.90
2022-11-03T03:51:04.917Z,10.90
2022-11-03T03:53:32.572Z,10.90
2022-11-03T03:56:00.432Z,11.00
2022-11-03T03:58:28.070Z,10.90
2022-11-03T04:00:55.750Z,11.00
2022-11-03T04:03:26.960Z,11.20
2022-11-03T04:05:55.171Z,11.10
2022-11-03T04:08:22.814Z,11.00
2022-11-03T04:11:09.057Z,10.90
2022-11-03T04:13:55.245Z,10.90
2022-11-03T04:16:41.233Z,10.80
2022-11-03T04:19:32.009Z,10.80
2022-11-03T04:22:18.108Z,10.80
2022-11-03T04:24:51.912Z,10.90
2022-11-03T04:27:28.579Z,11.30
2022-11-03T04:30:17.408Z,11.40
2022-11-03T04:32:51.285Z,11.60
2022-11-03T04:35:28.303Z,11.60
2022-11-03T04:38:21.543Z,11.70
2022-11-03T04:40:57.774Z,11.70
2022-11-03T04:43:37.119Z,11.60
2022-11-03T04:46:09.388Z,11.70
2022-11-03T04:48:37.651Z,11.70
2022-11-03T04:51:20.833Z,11.70
2022-11-03T04:54:06.835Z,11.70
2022-11-03T04:56:34.799Z,11.90
2022-11-03T04:59:04.803Z,11.90
2022-11-03T05:01:32.942Z,11.90
2022-11-03T05:04:00.928Z,11.90
2022-11-03T05:06:30.415Z,11.90
2022-11-03T05:09:17.149Z,11.80
2022-11-03T05:11:47.875Z,12.00
2022-11-03T05:14:30.086Z,11.90
2022-11-03T05:17:01.307Z,12.00
2022-11-03T05:19:39.257Z,12.10
2022-11-03T05:22:21.968Z,12.00
2022-11-03T05:25:01.792Z,11.90
2022-11-03T05:27:30.353Z,11.80
2022-11-03T05:30:01.106Z,11.80
2022-11-03T05:32:34.628Z,11.70
2022-11-03T05:35:02.414Z,11.60
2022-11-03T05:37:35.987Z,11.80
2022-11-03T05:40:25.628Z,11.80
2022-11-03T05:43:02.367Z,11.80
2022-11-03T05:45:37.426Z,11.80
2022-11-03T05:48:37.733Z,11.80
2022-11-03T05:51:28.688Z,11.80
2022-11-03T05:54:04.842Z,12.10
2022-11-03T05:56:35.201Z,12.20
2022-11-03T05:59:05.202Z,12.20
2022-11-03T06:01:39.632Z,12.10
2022-11-03T06:04:30.023Z,12.10
2022-11-03T06:07:17.370Z,12.00
2022-11-03T06:09:45.019Z,12.00
2022-11-03T06:12:20.863Z,11.90
2022-11-03T06:14:49.563Z,11.90
2022-11-03T06:17:28.783Z,11.90
2022-11-03T06:20:01.230Z,11.80
2022-11-03T06:22:37.590Z,11.70
2022-11-03T06:25:43.327Z,11.80
2022-11-03T06:28:36.919Z,11.80
2022-11-03T06:31:29.212Z,11.90
2022-11-03T06:33:59.485Z,12.00
2022-11-03T06:36:36.614Z,11.80
2022-11-03T06:39:24.189Z,11.90
2022-11-03T06:41:53.077Z,11.80
2022-11-03T06:44:29.167Z,11.80
2022-11-03T06:47:15.258Z,11.80
2022-11-03T06:49:44.594Z,11.90
2022-11-03T06:52:27.862Z,11.90
2022-11-03T06:55:28.456Z,12.00
2022-11-03T06:58:27.881Z,12.00
2022-11-03T07:01:12.716Z,12.00
2022-11-03T07:03:41.504Z,12.10
2022-11-03T07:06:11.745Z,12.20
2022-11-03T07:09:09.931Z,12.20
2022-11-03T07:12:00.826Z,12.40
2022-11-03T07:14:34.775Z,12.30
2022-11-03T07:17:15.386Z,12.20
2022-11-03T07:19:46.327Z,12.40
2022-11-03T07:22:27.475Z,12.50
2022-11-03T07:25:03.607Z,12.50
2022-11-03T07:27:40.239Z,12.50
2022-11-03T07:30:46.471Z,12.50
2022-11-03T07:33:27.822Z,12.50
2022-11-03T07:36:15.060Z,12.70
2022-11-03T07:38:52.928Z,12.70
2022-11-03T07:41:34.276Z,12.70
2022-11-03T07:44:03.293Z,12.70
2022-11-03T07:46:31.376Z,12.70
2022-11-03T07:49:03.481Z,12.80
2022-11-03T07:51:35.017Z,12.90
2022-11-03T07:54:23.903Z,13.10
2022-11-03T07:57:05.982Z,13.50
2022-11-03T07:59:44.046Z,13.80
2022-11-03T08:02:51.392Z,14.10
2022-11-03T08:07:51.587Z,14.40
2022-11-03T08:10:21.472Z,14.40
2022-11-03T08:12:49.068Z,14.40
2022-11-03T08:15:16.954Z,14.40
2022-11-03T08:17:44.471Z,14.60
2022-11-03T08:20:12.543Z,14.60
2022-11-03T08:22:41.598Z,14.60
2022-11-03T08:25:14.539Z,14.50
2022-11-03T08:27:42.060Z,14.50
2022-11-03T08:30:10.748Z,14.50
2022-11-03T08:32:38.343Z,14.40
2022-11-03T08:35:07.464Z,14.40
2022-11-03T08:37:35.008Z,14.40
2022-11-03T08:40:04.662Z,14.30
2022-11-03T08:42:32.296Z,14.10
2022-11-03T08:44:59.866Z,13.90
2022-11-03T08:47:27.531Z,13.90
2022-11-03T08:50:02.106Z,14.00
2022-11-03T08:52:41.006Z,14.10
2022-11-03T08:55:10.091Z,14.10
2022-11-03T08:57:37.647Z,14.20
2022-11-03T09:00:08.350Z,14.20
2022-11-03T09:02:36.209Z,14.20
2022-11-03T09:05:05.791Z,14.30
2022-11-03T09:10:24.815Z,14.60
2022-11-03T09:12:56.315Z,14.60
2022-11-03T09:15:23.967Z,14.60
2022-11-03T09:17:51.820Z,14.60
2022-11-03T09:20:21.164Z,14.60
2022-11-03T09:22:48.963Z,14.60
2022-11-03T09:25:16.866Z,14.80
2022-11-03T09:27:45.413Z,14.90
2022-11-03T09:30:14.296Z,14.90
2022-11-03T09:32:42.726Z,15.00
2022-11-03T09:35:12.322Z,15.00
2022-11-03T09:37:40.054Z,15.00
2022-11-03T09:40:13.766Z,15.10
2022-11-03T09:42:42.973Z,15.40
2022-11-03T09:45:12.129Z,15.50
2022-11-03T09:47:47.184Z,15.40
2022-11-03T09:50:20.584Z,15.60
2022-11-03T09:52:52.021Z,15.80
2022-11-03T09:55:27.740Z,15.90
2022-11-03T09:58:12.792Z,15.90
2022-11-03T10:00:40.584Z,16.00
2022-11-03T10:03:15.570Z,16.00
2022-11-03T10:05:46.016Z,16.10
2022-11-03T10:08:34.452Z,16.00
2022-11-03T10:11:06.437Z,15.70
2022-11-03T10:13:49.143Z,15.70
2022-11-03T10:16:24.983Z,15.70
2022-11-03T10:18:54.342Z,15.80
2022-11-03T10:21:34.230Z,15.90
2022-11-03T10:24:01.880Z,16.00
2022-11-03T10:26:35.669Z,16.00
2022-11-03T10:29:23.645Z,16.00
2022-11-03T10:32:02.414Z,16.10
2022-11-03T10:34:49.812Z,16.10
2022-11-03T10:37:31.889Z,16.10
2022-11-03T10:40:53.259Z,16.10
2022-11-03T10:43:26.024Z,16.00
2022-11-03T10:46:37.022Z,16.10
2022-11-03T10:49:21.751Z,16.10
2022-11-03T10:52:23.176Z,16.20
2022-11-03T10:55:05.369Z,16.30
2022-11-03T10:57:40.780Z,16.10
2022-11-03T11:00:19.353Z,16.10
2022-11-03T11:02:51.822Z,16.10
2022-11-03T11:05:24.538Z,16.10
2022-11-03T11:07:55.693Z,16.20
2022-11-03T11:10:29.559Z,16.10
2022-11-03T11:13:19.023Z,16.00
2022-11-03T11:15:53.658Z,16.00
2022-11-03T11:18:30.565Z,16.00
2022-11-03T11:21:25.181Z,16.00
2022-11-03T11:23:53.151Z,16.20
2022-11-03T11:26:31.310Z,16.30
2022-11-03T11:29:11.621Z,16.30
2022-11-03T11:31:44.929Z,16.30
2022-11-03T11:34:17.178Z,16.40
2022-11-03T11:37:10.860Z,16.70
2022-11-03T11:39:44.528Z,16.80
2022-11-03T11:42:22.451Z,16.80
2022-11-03T11:45:03.490Z,16.90
2022-11-03T11:47:57.778Z,17.10
2022-11-03T11:50:29.784Z,17.20
2022-11-03T11:53:12.525Z,17.40
2022-11-03T11:55:50.599Z,17.40
2022-11-03T11:58:46.508Z,17.30
2022-11-03T12:01:30.947Z,17.20
2022-11-03T12:04:31.398Z,17.00
2022-11-03T12:06:59.626Z,17.20
2022-11-03T12:09:28.955Z,17.20
2022-11-03T12:12:08.280Z,17.00
2022-11-03T12:14:39.877Z,16.80
2022-11-03T12:17:17.293Z,16.70
2022-11-03T12:19:56.596Z,16.50
2022-11-03T12:22:29.694Z,16.50
2022-11-03T12:25:07.033Z,16.50
2022-11-03T12:27:34.682Z,16.50
2022-11-03T12:30:19.467Z,16.50
2022-11-03T12:32:48.171Z,16.60
2022-11-03T12:35:17.225Z,16.50
2022-11-03T12:37:44.894Z,16.50
2022-11-03T12:40:14.709Z,16.60
2022-11-03T12:42:42.536Z,16.50
2022-11-03T12:45:13.758Z,16.50
2022-11-03T12:47:41.601Z,16.50
2022-11-03T12:50:10.287Z,16.40
2022-11-03T12:52:38.098Z,16.30
2022-11-03T12:55:06.594Z,16.40
2022-11-03T12:57:34.493Z,16.40
2022-11-03T13:00:02.874Z,16.40
2022-11-03T13:02:32.075Z,16.50
2022-11-03T13:04:59.836Z,16.50
2022-11-03T13:07:34.353Z,16.40
2022-11-03T13:10:04.035Z,16.30
2022-11-03T13:12:32.820Z,16.20
2022-11-03T13:15:08.361Z,16.20
2022-11-03T13:17:59.357Z,16.30
2022-11-03T13:20:24.660Z,16.20
2022-11-03T13:22:53.035Z,16.10
2022-11-03T13:25:20.939Z,16.20
2022-11-03T13:27:53.835Z,16.20
2022-11-03T13:30:27.584Z,16.30
2022-11-03T13:32:55.391Z,16.20
2022-11-03T13:35:23.920Z,16.30
2022-11-03T13:37:51.760Z,16.30
2022-11-03T13:43:08.320Z,16.10
2022-11-03T13:45:36.197Z,16.00
2022-11-03T13:51:00.280Z,16.00
2022-11-03T13:56:21.211Z,15.80
2022-11-03T14:01:39.276Z,15.70
2022-11-03T14:06:56.511Z,15.80
2022-11-03T14:09:25.308Z,15.80
2022-11-03T14:12:11.957Z,15.70
2022-11-03T14:14:39.963Z,15.70
2022-11-03T14:17:07.483Z,15.70
2022-11-03T14:19:42.935Z,15.60
2022-11-03T14:22:12.611Z,15.60
2022-11-03T14:24:40.147Z,15.40
2022-11-03T14:27:09.053Z,15.40
2022-11-03T14:29:36.869Z,15.50
2022-11-03T14:32:05.312Z,15.50
2022-11-03T14:34:33.041Z,15.30
2022-11-03T14:37:00.711Z,15.40
2022-11-03T14:39:28.537Z,15.40
2022-11-03T14:42:06.811Z,15.50
2022-11-03T14:44:39.682Z,15.60
2022-11-03T14:47:18.528Z,15.50
2022-11-03T14:49:49.126Z,15.30
2022-11-03T14:52:20.319Z,15.30
2022-11-03T14:54:48.478Z,15.40
2022-11-03T14:57:16.968Z,15.20
2022-11-03T14:59:46.835Z,15.20
2022-11-03T15:02:19.480Z,15.00
2022-11-03T15:04:47.658Z,15.00
2022-11-03T15:07:15.338Z,14.90
2022-11-03T15:09:47.955Z,14.90
2022-11-03T15:12:15.555Z,14.70
2022-11-03T15:14:43.159Z,14.80
2022-11-03T15:17:10.749Z,14.70
2022-11-03T15:19:38.347Z,14.60
2022-11-03T15:22:05.828Z,14.40
2022-11-03T15:27:21.530Z,14.10
2022-11-03T15:29:49.079Z,14.10
2022-11-03T15:32:16.887Z,14.00
2022-11-03T15:34:44.705Z,14.00
2022-11-03T15:37:12.481Z,14.00
2022-11-03T15:39:40.330Z,13.90
2022-11-03T15:42:08.099Z,13.80
2022-11-03T15:44:35.948Z,13.70
2022-11-03T15:47:06.387Z,13.60
2022-11-03T15:49:34.772Z,13.60
2022-11-03T15:52:02.502Z,13.70
2022-11-03T15:54:35.311Z,13.50
2022-11-03T15:57:06.661Z,13.40
2022-11-03T15:59:34.673Z,13.30
2022-11-03T16:02:14.224Z,13.00
2022-11-03T16:04:50.995Z,13.10
2022-11-03T16:07:18.678Z,13.20
2022-11-03T16:09:47.462Z,13.10
2022-11-03T16:12:14.985Z,12.90
2022-11-03T16:14:42.633Z,12.80
2022-11-03T16:17:10.737Z,12.70
2022-11-03T16:19:38.382Z,12.70
2022-11-03T16:22:06.033Z,12.70
2022-11-03T16:24:35.391Z,12.70
2022-11-03T16:27:04.957Z,12.60
2022-11-03T16:29:33.146Z,12.50
2022-11-03T16:32:00.918Z,12.50
2022-11-03T16:34:30.371Z,12.50
2022-11-03T16:36:58.300Z,12.50
2022-11-03T16:39:26.083Z,12.50
2022-11-03T16:41:55.180Z,12.40
2022-11-03T16:44:23.256Z,12.30
2022-11-03T16:46:50.992Z,12.20
2022-11-03T16:49:18.738Z,12.20
2022-11-03T16:51:46.275Z,12.20
2022-11-03T16:54:15.267Z,12.20
2022-11-03T16:56:44.191Z,12.20
2022-11-03T16:59:12.174Z,12.20
2022-11-03T17:01:39.830Z,12.30
2022-11-03T17:04:08.688Z,12.30
2022-11-03T17:06:39.358Z,12.30
2022-11-03T17:09:07.143Z,12.20
2022-11-03T17:11:37.841Z,12.20
2022-11-03T17:14:13.768Z,12.20
2022-11-03T17:16:48.721Z,12.30
2022-11-03T17:19:17.015Z,12.30
2022-11-03T17:21:44.775Z,12.40
2022-11-03T17:24:13.389Z,12.30
2022-11-03T17:27:18.619Z,12.30
2022-11-03T17:29:59.554Z,12.30
2022-11-03T17:32:41.451Z,12.20
2022-11-03T17:35:42.843Z,12.20
2022-11-03T17:38:18.285Z,12.20
2022-11-03T17:40:48.897Z,12.20
2022-11-03T17:43:30.140Z,12.20
2022-11-03T17:45:57.923Z,12.20
2022-11-03T17:48:25.596Z,12.20
2022-11-03T17:50:57.187Z,12.20
2022-11-03T17:53:34.542Z,12.20
2022-11-03T17:56:29.057Z,12.10
2022-11-03T17:58:51.101Z,12.10
2022-11-03T18:01:27.646Z,12.10
2022-11-03T18:03:55.636Z,12.20
2022-11-03T18:06:23.162Z,12.20
2022-11-03T18:08:53.802Z,12.10
2022-11-03T18:11:49.221Z,12.20
2022-11-03T18:14:18.602Z,12.20
2022-11-03T18:16:48.017Z,12.20
2022-11-03T18:19:18.393Z,12.30
2022-11-03T18:21:47.125Z,12.30
2022-11-03T18:24:20.434Z,12.30
2022-11-03T18:26:48.745Z,12.30
2022-11-03T18:29:16.387Z,12.40
2022-11-03T18:31:50.681Z,12.40
2022-11-03T18:34:35.146Z,12.30
2022-11-03T18:37:03.473Z,12.40
2022-11-03T18:39:31.345Z,12.30
2022-11-03T18:41:59.490Z,12.30
2022-11-03T18:44:30.700Z,12.30
2022-11-03T18:46:59.557Z,12.20
2022-11-03T18:49:28.095Z,12.30
2022-11-03T18:52:04.352Z,12.30
2022-11-03T18:54:35.882Z,12.30
2022-11-03T18:57:04.519Z,12.30
2022-11-03T18:59:39.277Z,12.30
2022-11-03T19:02:26.461Z,12.20
2022-11-03T19:04:54.704Z,12.30
2022-11-03T19:07:36.021Z,12.30
2022-11-03T19:10:14.838Z,12.20
2022-11-03T19:12:45.420Z,12.40
2022-11-03T19:15:26.058Z,12.40
2022-11-03T19:17:59.623Z,12.30
2022-11-03T19:20:27.259Z,12.40
2022-11-03T19:22:54.850Z,12.30
2022-11-03T19:25:22.547Z,12.30
2022-11-03T19:27:50.306Z,12.40
2022-11-03T19:30:20.832Z,12.30
2022-11-03T19:32:57.215Z,12.40
2022-11-03T19:35:35.079Z,12.40
2022-11-03T19:38:13.002Z,12.50
2022-11-03T19:41:00.523Z,12.50
2022-11-03T19:43:33.350Z,12.40
2022-11-03T19:46:03.030Z,12.40
2022-11-03T19:48:35.020Z,12.40
2022-11-03T19:51:09.807Z,12.30
2022-11-03T19:53:37.774Z,12.30
2022-11-03T19:56:07.043Z,12.40
2022-11-03T19:58:34.684Z,12.30
2022-11-03T20:01:08.239Z,12.30
2022-11-03T20:03:37.380Z,12.40
2022-11-03T20:06:07.570Z,12.30
2022-11-03T20:08:37.937Z,12.20
2022-11-03T20:11:06.840Z,12.30
2022-11-03T20:13:43.327Z,12.30
2022-11-03T20:16:17.261Z,12.30
2022-11-03T20:18:45.126Z,12.20
2022-11-03T20:21:20.102Z,12.10
2022-11-03T20:23:50.679Z,12.20
2022-11-03T20:26:24.758Z,12.30
2022-11-03T20:28:56.829Z,12.30
2022-11-03T20:31:24.963Z,12.20
2022-11-03T20:33:52.692Z,12.30
2022-11-03T20:36:21.608Z,12.30
2022-11-03T20:38:59.765Z,12.30
2022-11-03T20:41:31.097Z,12.40
2022-11-03T20:44:00.107Z,12.50
2022-11-03T20:46:34.369Z,12.60
2022-11-03T20:49:02.088Z,12.60
2022-11-03T20:51:47.305Z,12.60
2022-11-03T20:54:21.901Z,12.40
2022-11-03T20:56:51.314Z,12.50
2022-11-03T20:59:24.605Z,12.60
2022-11-03T21:01:53.924Z,12.50
2022-11-03T21:04:23.056Z,12.50
2022-11-03T21:06:51.093Z,12.40
2022-11-03T21:09:20.494Z,12.40
2022-11-03T21:11:52.384Z,12.40
2022-11-03T21:14:27.957Z,12.30
2022-11-03T21:17:15.530Z,12.30
2022-11-03T21:20:01.809Z,12.20
2022-11-03T21:22:57.433Z,12.10
2022-11-03T21:25:25.667Z,12.10
2022-11-03T21:27:54.990Z,12.20
2022-11-03T21:30:24.066Z,12.30
2022-11-03T21:32:51.867Z,12.20
2022-11-03T21:35:22.780Z,12.10
2022-11-03T21:37:50.477Z,12.20
2022-11-03T21:40:18.588Z,12.20
2022-11-03T21:43:05.120Z,12.20
2022-11-03T21:45:33.162Z,12.10
2022-11-03T21:48:20.516Z,12.10
2022-11-03T21:50:48.823Z,12.00
2022-11-03T21:53:16.739Z,12.00
2022-11-03T21:55:49.467Z,12.10
2022-11-03T21:58:17.262Z,12.10
2022-11-03T22:00:47.144Z,12.20
2022-11-03T22:03:15.222Z,12.20
2022-11-03T22:05:42.839Z,12.20
2022-11-03T22:08:10.744Z,12.20
2022-11-03T22:10:40.819Z,12.30
2022-11-03T22:13:08.924Z,12.30
2022-11-03T22:15:55.417Z,12.20
2022-11-03T22:18:23.581Z,12.30
2022-11-03T22:21:10.122Z,12.20
2022-11-03T22:23:56.282Z,12.20
2022-11-03T22:26:42.532Z,12.10
2022-11-03T22:29:28.759Z,12.10
2022-11-03T22:31:57.051Z,12.20
2022-11-03T22:34:43.194Z,12.30
2022-11-03T22:37:12.047Z,12.30
2022-11-03T22:39:57.988Z,12.30
2022-11-03T22:45:35.529Z,12.30
2022-11-03T22:48:06.988Z,12.30
2022-11-03T22:50:34.686Z,12.40
2022-11-03T22:53:22.169Z,12.40
2022-11-03T22:55:49.841Z,12.40
2022-11-03T22:58:17.891Z,12.30
2022-11-03T23:00:47.430Z,12.30
2022-11-03T23:03:18.023Z,12.30
2022-11-03T23:05:47.745Z,12.20
2022-11-03T23:08:16.801Z,12.30
2022-11-03T23:10:46.533Z,12.30
2022-11-03T23:13:15.453Z,12.30
2022-11-03T23:15:45.166Z,12.00
2022-11-03T23:18:33.423Z,11.70
2022-11-03T23:21:08.719Z,11.50
2022-11-03T23:23:58.834Z,11.30
2022-11-03T23:26:28.766Z,11.20
2022-11-03T23:28:58.696Z,11.10
2022-11-03T23:31:28.299Z,11.00
2022-11-03T23:34:00.766Z,10.90
2022-11-03T23:36:32.224Z,10.70
2022-11-03T23:39:06.064Z,10.70
2022-11-03T23:41:36.145Z,10.60
2022-11-03T23:44:06.626Z,10.60
2022-11-03T23:46:54.772Z,10.60
2022-11-03T23:49:25.084Z,10.60
2022-11-03T23:51:55.741Z,10.60
2022-11-03T23:54:24.918Z,10.50
2022-11-03T23:57:12.591Z,10.50
2022-11-03T23:59:41.634Z,10.40
